createdAt,value
2023-02-06T00:01:57.540Z,1.00
2023-02-06T00:04:34.480Z,1.00
2023-02-06T00:07:02.846Z,1.00
2023-02-06T00:09:32.463Z,99.90
2023-02-06T00:12:02.258Z,1.00
2023-02-06T00:14:32.177Z,1.00
2023-02-06T00:17:01.116Z,1.00
2023-02-06T00:19:29.245Z,99.90
2023-02-06T00:21:57.581Z,99.90
2023-02-06T00:24:25.717Z,99.90
2023-02-06T00:26:53.759Z,99.90
2023-02-06T00:29:22.226Z,99.90
2023-02-06T00:31:51.645Z,99.90
2023-02-06T00:34:19.712Z,99.90
2023-02-06T00:36:47.865Z,99.90
2023-02-06T00:39:16.245Z,55.00
2023-02-06T00:41:44.711Z,99.90
2023-02-06T00:44:13.305Z,99.90
2023-02-06T00:46:42.162Z,99.90
2023-02-06T00:49:14.831Z,1.00
2023-02-06T00:51:45.128Z,1.00
2023-02-06T00:54:13.419Z,1.00
2023-02-06T00:56:42.320Z,1.00
2023-02-06T00:59:11.079Z,1.00
2023-02-06T01:01:39.503Z,99.90
2023-02-06T01:04:07.739Z,99.90
2023-02-06T01:06:37.411Z,99.90
2023-02-06T01:09:05.662Z,1.00
2023-02-06T01:11:34.311Z,1.00
2023-02-06T01:14:02.896Z,99.90
2023-02-06T01:16:30.950Z,87.70
2023-02-06T01:18:59.070Z,99.90
2023-02-06T01:21:27.477Z,99.90
2023-02-06T01:23:57.079Z,99.90
2023-02-06T01:26:29.297Z,99.90
2023-02-06T01:28:57.368Z,99.90
2023-02-06T01:31:27.677Z,99.90
2023-02-06T01:33:58.103Z,1.00
2023-02-06T01:36:27.068Z,99.90
2023-02-06T01:38:57.133Z,99.90
2023-02-06T01:41:25.719Z,1.00
2023-02-06T01:44:13.416Z,99.90
2023-02-06T01:46:43.229Z,99.90
2023-02-06T01:49:16.653Z,99.90
2023-02-06T01:51:45.288Z,99.90
2023-02-06T01:54:16.398Z,1.00
2023-02-06T01:56:48.950Z,1.00
2023-02-06T01:59:17.667Z,1.00
2023-02-06T02:01:46.084Z,99.90
2023-02-06T02:04:18.181Z,1.00
2023-02-06T02:06:48.938Z,1.00
2023-02-06T02:09:19.647Z,99.90
2023-02-06T02:11:47.757Z,1.00
2023-02-06T02:14:17.726Z,99.90
2023-02-06T02:16:54.589Z,99.90
2023-02-06T02:19:50.275Z,99.90
2023-02-06T02:22:43.130Z,99.90
2023-02-06T02:25:55.900Z,99.90
2023-02-06T02:28:56.609Z,1.00
2023-02-06T02:31:50.387Z,1.00
2023-02-06T02:35:03.734Z,1.00
2023-02-06T02:37:52.484Z,99.90
2023-02-06T02:40:27.371Z,1.00
2023-02-06T02:43:09.623Z,99.90
2023-02-06T02:45:44.852Z,99.90
2023-02-06T02:48:16.284Z,99.90
2023-02-06T02:50:46.069Z,1.00
2023-02-06T02:53:14.949Z,1.00
2023-02-06T02:55:43.166Z,1.00
2023-02-06T02:58:14.472Z,99.90
2023-02-06T03:00:47.498Z,99.90
2023-02-06T03:03:22.241Z,99.90
2023-02-06T03:06:11.240Z,1.00
2023-02-06T03:08:50.795Z,1.00
2023-02-06T03:11:21.221Z,1.00
2023-02-06T03:13:54.970Z,1.00
2023-02-06T03:16:27.190Z,99.90
2023-02-06T03:19:03.948Z,99.90
2023-02-06T03:21:37.066Z,99.90
2023-02-06T03:24:10.360Z,99.90
2023-02-06T03:26:41.398Z,43.20
2023-02-06T03:29:13.461Z,1.00
2023-02-06T03:31:48.483Z,1.00
2023-02-06T03:34:25.756Z,19.10
2023-02-06T03:36:56.619Z,1.00
2023-02-06T03:39:26.303Z,1.00
2023-02-06T03:41:57.953Z,8.30
2023-02-06T03:44:31.836Z,50.40
2023-02-06T03:47:01.814Z,95.50
2023-02-06T03:49:32.406Z,1.00
2023-02-06T03:52:20.081Z,99.90
2023-02-06T03:54:54.325Z,99.90
2023-02-06T03:57:25.185Z,99.90
2023-02-06T03:59:55.728Z,99.90
2023-02-06T04:02:26.522Z,99.90
2023-02-06T04:04:54.755Z,99.90
2023-02-06T04:07:27.415Z,99.90
2023-02-06T04:09:55.580Z,99.90
2023-02-06T04:12:25.383Z,99.90
2023-02-06T04:14:54.177Z,99.90
2023-02-06T04:17:40.785Z,99.90
2023-02-06T04:20:12.435Z,99.90
2023-02-06T04:22:44.475Z,99.90
2023-02-06T04:25:13.261Z,99.90
2023-02-06T04:27:41.376Z,99.90
2023-02-06T04:30:11.890Z,99.90
2023-02-06T04:32:41.275Z,99.90
2023-02-06T04:35:10.245Z,99.90
2023-02-06T04:37:46.309Z,1.00
2023-02-06T04:40:18.504Z,99.90
2023-02-06T04:42:46.882Z,99.90
2023-02-06T04:45:21.989Z,99.90
2023-02-06T04:47:51.521Z,99.90
2023-02-06T04:50:19.902Z,99.90
2023-02-06T04:52:49.367Z,99.90
2023-02-06T04:55:17.599Z,99.90
2023-02-06T04:57:49.367Z,99.90
2023-02-06T05:00:18.233Z,99.90
2023-02-06T05:02:46.313Z,99.90
2023-02-06T05:05:14.645Z,99.90
2023-02-06T05:07:44.208Z,99.90
2023-02-06T05:16:50.285Z,99.90
2023-02-06T05:19:36.029Z,99.90
2023-02-06T05:22:17.267Z,99.90
2023-02-06T05:24:45.939Z,99.90
2023-02-06T05:27:16.948Z,99.90
2023-02-06T05:29:48.012Z,99.90
2023-02-06T05:32:20.571Z,99.90
2023-02-06T05:34:53.868Z,99.90
2023-02-06T05:38:13.461Z,99.90
2023-02-06T05:40:54.109Z,99.90
2023-02-06T05:43:23.673Z,99.90
2023-02-06T05:45:57.733Z,99.90
2023-02-06T05:48:28.721Z,99.90
2023-02-06T05:50:58.660Z,99.90
2023-02-06T05:53:29.074Z,99.90
2023-02-06T05:55:57.290Z,99.90
2023-02-06T05:58:26.930Z,99.90
2023-02-06T06:00:58.593Z,99.90
2023-02-06T06:03:28.126Z,97.40
2023-02-06T06:06:32.889Z,99.90
2023-02-06T06:09:24.697Z,99.90
2023-02-06T06:11:59.413Z,99.90
2023-02-06T06:14:31.156Z,76.50
2023-02-06T06:17:00.506Z,95.10
2023-02-06T06:19:36.130Z,91.40
2023-02-06T06:22:05.576Z,99.90
2023-02-06T06:24:33.897Z,97.80
2023-02-06T06:27:04.452Z,99.90
2023-02-06T06:29:37.697Z,99.90
2023-02-06T06:32:12.163Z,99.90
2023-02-06T06:34:59.497Z,99.90
2023-02-06T06:38:01.395Z,94.90
2023-02-06T06:44:13.935Z,76.40
2023-02-06T06:47:00.890Z,33.90
2023-02-06T06:49:42.765Z,91.60
2023-02-06T06:52:25.469Z,99.90
2023-02-06T06:54:56.412Z,81.90
2023-02-06T06:57:27.698Z,32.20
2023-02-06T06:59:58.153Z,1.00
2023-02-06T07:02:29.066Z,1.00
2023-02-06T07:04:57.739Z,1.00
2023-02-06T07:07:27.687Z,1.00
2023-02-06T07:10:00.423Z,1.00
2023-02-06T07:12:30.310Z,1.00
2023-02-06T07:15:00.625Z,1.00
2023-02-06T07:17:36.135Z,1.00
2023-02-06T07:20:22.160Z,1.00
2023-02-06T07:26:12.840Z,1.00
2023-02-06T07:28:52.273Z,1.00
2023-02-06T07:31:31.406Z,99.90
2023-02-06T07:34:04.769Z,99.90
2023-02-06T07:36:34.251Z,99.90
2023-02-06T07:39:24.024Z,99.90
2023-02-06T07:42:02.970Z,99.90
2023-02-06T07:44:33.516Z,99.90
2023-02-06T07:47:01.645Z,99.90
2023-02-06T07:49:32.659Z,99.90
2023-02-06T07:55:09.579Z,99.90
2023-02-06T07:57:38.935Z,99.90
2023-02-06T08:00:16.735Z,99.90
2023-02-06T08:02:44.773Z,99.90
2023-02-06T08:05:19.782Z,99.90
2023-02-06T08:07:49.333Z,99.90
2023-02-06T08:10:23.317Z,99.90
2023-02-06T08:12:51.522Z,99.90
2023-02-06T08:22:07.802Z,99.90
2023-02-06T08:24:38.692Z,99.90
2023-02-06T08:27:16.143Z,99.90
2023-02-06T08:29:54.131Z,99.90
2023-02-06T08:32:34.773Z,99.90
2023-02-06T08:35:03.167Z,99.90
2023-02-06T08:41:26.451Z,99.90
2023-02-06T08:44:03.709Z,99.90
2023-02-06T08:47:10.141Z,99.90
2023-02-06T08:49:49.988Z,99.90
2023-02-06T08:52:36.342Z,96.00
2023-02-06T08:57:56.930Z,94.60
2023-02-06T09:00:57.703Z,92.70
2023-02-06T09:03:28.866Z,96.20
2023-02-06T09:06:09.626Z,84.70
2023-02-06T09:08:39.360Z,94.10
2023-02-06T09:11:12.151Z,90.10
2023-02-06T09:13:40.986Z,95.30
2023-02-06T09:16:28.409Z,85.40
2023-02-06T09:19:13.524Z,92.10
2023-02-06T09:21:42.805Z,97.00
2023-02-06T09:24:11.997Z,96.30
2023-02-06T09:27:00.742Z,67.30
2023-02-06T09:29:40.437Z,82.20
2023-02-06T09:32:10.185Z,56.90
2023-02-06T09:34:38.253Z,63.50
2023-02-06T09:37:16.903Z,67.40
2023-02-06T09:39:47.429Z,69.00
2023-02-06T09:42:21.367Z,59.40
2023-02-06T09:45:00.608Z,55.60
2023-02-06T09:47:33.098Z,51.10
2023-02-06T09:50:08.453Z,53.90
2023-02-06T09:52:54.585Z,51.20
2023-02-06T09:55:35.801Z,49.10
2023-02-06T09:58:16.193Z,39.20
2023-02-06T10:01:00.860Z,29.90
2023-02-06T10:04:05.312Z,39.30
2023-02-06T10:06:41.942Z,43.40
2023-02-06T10:12:38.747Z,1.00
2023-02-06T10:15:14.746Z,1.00
2023-02-06T10:18:02.490Z,1.00
2023-02-06T10:20:52.260Z,1.00
2023-02-06T10:23:31.164Z,1.00
2023-02-06T10:26:12.820Z,1.00
2023-02-06T10:28:44.185Z,1.00
2023-02-06T10:31:28.461Z,1.00
2023-02-06T10:34:25.658Z,1.00
2023-02-06T10:37:19.292Z,1.00
2023-02-06T10:39:59.379Z,1.00
2023-02-06T10:42:44.826Z,1.00
2023-02-06T10:45:33.188Z,1.00
2023-02-06T10:48:24.310Z,1.00
2023-02-06T10:50:57.608Z,1.00
2023-02-06T10:53:41.755Z,1.00
2023-02-06T10:56:18.955Z,1.00
2023-02-06T10:58:56.247Z,1.00
2023-02-06T11:01:30.521Z,1.00
2023-02-06T11:04:06.856Z,1.00
2023-02-06T11:06:36.187Z,1.00
2023-02-06T11:09:13.129Z,1.00
2023-02-06T11:11:50.115Z,1.00
2023-02-06T11:14:25.201Z,1.00
2023-02-06T11:17:09.490Z,1.00
2023-02-06T11:19:52.278Z,1.00
2023-02-06T11:22:31.224Z,1.00
2023-02-06T11:25:16.673Z,1.00
2023-02-06T11:28:18.772Z,1.00
2023-02-06T11:33:51.324Z,1.00
2023-02-06T11:36:47.433Z,1.00
2023-02-06T11:39:46.046Z,1.00
2023-02-06T11:42:32.116Z,1.00
2023-02-06T11:45:26.289Z,1.00
2023-02-06T11:48:08.128Z,1.00
2023-02-06T11:50:42.918Z,1.00
2023-02-06T11:53:28.364Z,1.00
2023-02-06T11:56:15.612Z,1.00
2023-02-06T11:59:17.596Z,1.00
2023-02-06T12:01:51.769Z,1.00
2023-02-06T12:04:29.765Z,1.00
2023-02-06T12:07:07.421Z,1.00
2023-02-06T12:09:49.252Z,1.00
2023-02-06T12:12:52.964Z,1.00
2023-02-06T12:18:47.504Z,1.00
2023-02-06T12:24:51.531Z,1.00
2023-02-06T12:27:26.200Z,1.00
2023-02-06T12:30:01.800Z,1.00
2023-02-06T12:32:42.252Z,1.00
2023-02-06T12:35:25.090Z,1.00
2023-02-06T12:38:01.387Z,1.00
2023-02-06T12:40:48.158Z,1.00
2023-02-06T12:43:37.860Z,1.00
2023-02-06T12:47:00.795Z,1.00
2023-02-06T12:50:33.064Z,1.00
2023-02-06T12:53:30.746Z,1.00
2023-02-06T12:56:23.953Z,1.00
2023-02-06T13:02:35.753Z,1.00
2023-02-06T13:05:24.753Z,1.00
2023-02-06T13:07:57.097Z,1.00
2023-02-06T13:10:34.086Z,1.00
2023-02-06T13:13:06.224Z,1.00
2023-02-06T13:19:16.247Z,1.00
2023-02-06T13:22:58.173Z,1.00
2023-02-06T13:25:55.195Z,1.00
2023-02-06T13:29:09.603Z,1.00
2023-02-06T13:31:38.586Z,1.00
2023-02-06T13:34:20.148Z,1.00
2023-02-06T13:36:55.609Z,1.00
2023-02-06T13:39:45.359Z,1.00
2023-02-06T13:56:47.316Z,1.00
2023-02-06T13:59:34.691Z,1.00
2023-02-06T14:05:31.434Z,1.00
2023-02-06T14:08:19.436Z,1.00
2023-02-06T14:11:27.065Z,1.00
2023-02-06T14:14:39.584Z,1.00
2023-02-06T14:17:20.686Z,1.00
2023-02-06T14:20:28.564Z,1.00
2023-02-06T14:25:52.768Z,1.00
2023-02-06T14:28:29.251Z,1.00
2023-02-06T14:34:31.892Z,1.00
2023-02-06T14:37:38.955Z,1.00
2023-02-06T14:40:51.315Z,1.00
2023-02-06T14:47:34.687Z,1.00
2023-02-06T14:54:05.211Z,1.00
2023-02-06T14:56:36.712Z,1.00
2023-02-06T14:59:17.477Z,1.00
2023-02-06T15:01:48.921Z,1.00
2023-02-06T15:04:43.196Z,1.00
2023-02-06T15:07:24.448Z,1.00
2023-02-06T15:10:10.720Z,1.00
2023-02-06T15:12:43.591Z,1.00
2023-02-06T15:15:32.917Z,1.00
2023-02-06T15:18:16.633Z,1.00
2023-02-06T15:24:26.716Z,1.00
2023-02-06T15:28:06.463Z,1.00
2023-02-06T15:39:52.850Z,1.00
2023-02-06T15:42:29.602Z,1.00
2023-02-06T15:45:04.380Z,1.00
2023-02-06T15:47:50.053Z,1.00
2023-02-06T15:50:35.845Z,1.00
2023-02-06T15:56:33.115Z,1.00
2023-02-06T16:03:06.077Z,1.00
2023-02-06T16:06:17.920Z,1.00
2023-02-06T16:19:42.564Z,1.00
2023-02-06T16:22:26.275Z,1.00
2023-02-06T16:24:56.961Z,1.00
2023-02-06T16:27:28.590Z,1.00
2023-02-06T16:30:32.980Z,1.00
2023-02-06T16:33:26.759Z,1.00
2023-02-06T16:35:59.743Z,1.00
2023-02-06T16:45:29.430Z,1.00
2023-02-06T16:48:15.717Z,1.00
2023-02-06T16:51:01.458Z,1.00
2023-02-06T16:53:35.923Z,1.00
2023-02-06T16:56:26.868Z,1.00
2023-02-06T16:58:57.283Z,1.00
2023-02-06T17:01:30.267Z,1.00
2023-02-06T17:04:13.367Z,1.00
2023-02-06T17:06:52.264Z,1.00
2023-02-06T17:09:20.626Z,1.00
2023-02-06T17:11:54.059Z,1.00
2023-02-06T17:14:25.385Z,1.00
2023-02-06T17:16:56.089Z,1.00
2023-02-06T17:19:25.472Z,1.00
2023-02-06T17:22:04.500Z,1.00
2023-02-06T17:24:33.184Z,1.00
2023-02-06T17:27:02.352Z,1.00
2023-02-06T17:36:16.786Z,1.00
2023-02-06T17:38:55.970Z,1.00
2023-02-06T17:41:46.765Z,1.00
2023-02-06T17:44:17.003Z,1.00
2023-02-06T17:46:48.072Z,1.00
2023-02-06T17:49:17.423Z,1.00
2023-02-06T17:51:48.709Z,1.00
2023-02-06T17:54:22.573Z,1.00
2023-02-06T17:56:56.625Z,1.00
2023-02-06T17:59:32.383Z,1.00
2023-02-06T18:02:01.881Z,1.00
2023-02-06T18:05:17.186Z,1.00
2023-02-06T18:08:20.746Z,1.00
2023-02-06T18:14:57.516Z,1.00
2023-02-06T18:17:36.039Z,1.00
2023-02-06T18:20:06.263Z,1.00
2023-02-06T18:22:43.684Z,1.00
2023-02-06T18:29:48.893Z,1.00
2023-02-06T18:36:16.611Z,1.00
2023-02-06T18:38:51.625Z,1.00
2023-02-06T18:41:47.479Z,1.00
2023-02-06T18:44:16.979Z,1.00
2023-02-06T18:47:24.739Z,1.00
2023-02-06T18:50:16.319Z,1.00
2023-02-06T18:55:40.611Z,1.00
2023-02-06T18:58:09.582Z,1.00
2023-02-06T19:01:06.633Z,1.00
2023-02-06T19:03:50.770Z,1.00
2023-02-06T19:09:07.964Z,1.00
2023-02-06T19:12:01.243Z,1.00
2023-02-06T19:18:37.607Z,1.00
2023-02-06T19:21:31.791Z,1.00
2023-02-06T19:24:02.175Z,1.00
2023-02-06T19:26:50.493Z,1.00
2023-02-06T19:29:34.800Z,1.00
2023-02-06T19:47:55.635Z,1.00
2023-02-06T19:50:37.759Z,1.00
2023-02-06T19:53:08.802Z,1.00
2023-02-06T19:55:40.815Z,1.00
2023-02-06T19:58:15.509Z,1.00
2023-02-06T20:00:43.896Z,1.00
2023-02-06T20:03:18.282Z,1.00
2023-02-06T20:05:47.119Z,1.00
2023-02-06T20:08:20.926Z,1.00
2023-02-06T20:11:10.835Z,1.00
2023-02-06T20:13:49.835Z,1.00
2023-02-06T20:16:23.673Z,1.00
2023-02-06T20:18:53.965Z,1.00
2023-02-06T20:21:28.060Z,1.00
2023-02-06T20:23:59.829Z,1.00
2023-02-06T20:26:32.251Z,1.00
2023-02-06T20:29:03.559Z,1.00
2023-02-06T20:31:38.593Z,1.00
2023-02-06T20:34:10.942Z,1.00
2023-02-06T20:36:50.692Z,1.00
2023-02-06T20:39:45.816Z,1.00
2023-02-06T20:43:17.129Z,1.00
2023-02-06T20:45:58.088Z,1.00
2023-02-06T20:54:28.336Z,1.00
2023-02-06T20:56:56.869Z,1.00
2023-02-06T20:59:32.255Z,1.00
2023-02-06T21:02:06.486Z,1.00
2023-02-06T21:04:45.830Z,1.00
2023-02-06T21:10:29.013Z,1.00
2023-02-06T21:12:59.483Z,1.00
2023-02-06T21:16:03.780Z,1.00
2023-02-06T21:18:45.779Z,1.00
2023-02-06T21:21:18.640Z,1.00
2023-02-06T21:24:49.895Z,1.00
2023-02-06T21:29:51.744Z,1.00
2023-02-06T21:32:20.288Z,1.00
2023-02-06T21:34:49.566Z,1.00
2023-02-06T21:37:24.454Z,1.00
2023-02-06T21:39:56.922Z,1.00
2023-02-06T21:42:27.546Z,1.00
2023-02-06T21:44:57.751Z,1.00
2023-02-06T21:47:26.346Z,1.00
2023-02-06T21:49:54.839Z,1.00
2023-02-06T21:52:24.621Z,1.00
2023-02-06T21:54:52.886Z,1.00
2023-02-06T21:57:21.084Z,1.00
2023-02-06T21:59:49.196Z,1.00
2023-02-06T22:02:18.942Z,1.00
2023-02-06T22:04:49.625Z,1.00
2023-02-06T22:07:22.052Z,1.00
2023-02-06T22:09:53.200Z,1.00
2023-02-06T22:12:26.873Z,1.00
2023-02-06T22:14:55.229Z,1.00
2023-02-06T22:17:36.550Z,1.00
2023-02-06T22:20:08.666Z,1.00
2023-02-06T22:22:41.693Z,1.00
2023-02-06T22:25:17.500Z,1.00
2023-02-06T22:27:48.774Z,1.00
2023-02-06T22:30:17.960Z,1.00
2023-02-06T22:32:48.934Z,1.00
2023-02-06T22:35:17.317Z,1.00
2023-02-06T22:37:47.491Z,1.00
2023-02-06T22:40:15.780Z,1.00
2023-02-06T22:42:44.415Z,1.00
2023-02-06T22:45:14.423Z,1.00
2023-02-06T22:47:42.541Z,1.00
2023-02-06T22:50:12.655Z,1.00
2023-02-06T22:52:58.322Z,1.00
2023-02-06T22:55:51.082Z,1.00
2023-02-06T22:58:19.272Z,1.00
2023-02-06T23:00:48.859Z,1.00
2023-02-06T23:03:16.971Z,1.00
2023-02-06T23:05:54.857Z,1.00
2023-02-06T23:14:44.262Z,1.00
2023-02-06T23:17:14.850Z,1.00
2023-02-06T23:19:42.972Z,1.00
2023-02-06T23:22:13.406Z,1.00
2023-02-06T23:24:41.795Z,1.00
2023-02-06T23:27:09.943Z,1.00
2023-02-06T23:29:39.044Z,1.00
2023-02-06T23:32:09.184Z,1.00
2023-02-06T23:34:39.984Z,1.00
2023-02-06T23:37:09.914Z,1.00
2023-02-06T23:39:39.506Z,1.00
2023-02-06T23:42:07.610Z,1.00
2023-02-06T23:44:36.070Z,1.00
2023-02-06T23:47:04.351Z,1.00
2023-02-06T23:49:32.415Z,1.00
2023-02-06T23:52:05.614Z,1.00
2023-02-06T23:54:33.704Z,1.00
2023-02-06T23:57:05.262Z,1.00
2023-02-06T23:59:33.781Z,1.00
